sensor_id;sensor_type;location;lat;lon;timestamp;temperature;humidity
20335;DHT22;10325;51.468;5.804;2023-05-07T00:01:48;21.50;60.80
20335;DHT22;10325;51.468;5.804;2023-05-07T00:04:18;21.50;60.80
20335;DHT22;10325;51.468;5.804;2023-05-07T00:06:48;21.50;60.80
20335;DHT22;10325;51.468;5.804;2023-05-07T00:09:18;21.50;60.70
20335;DHT22;10325;51.468;5.804;2023-05-07T00:11:49;21.50;60.80
20335;DHT22;10325;51.468;5.804;2023-05-07T00:14:19;21.40;60.80
20335;DHT22;10325;51.468;5.804;2023-05-07T00:16:52;21.40;60.80
20335;DHT22;10325;51.468;5.804;2023-05-07T00:19:22;21.40;60.90
20335;DHT22;10325;51.468;5.804;2023-05-07T00:21:51;21.40;60.90
20335;DHT22;10325;51.468;5.804;2023-05-07T00:24:24;21.40;60.80
20335;DHT22;10325;51.468;5.804;2023-05-07T00:26:59;21.40;60.90
20335;DHT22;10325;51.468;5.804;2023-05-07T00:29:30;21.40;60.90
20335;DHT22;10325;51.468;5.804;2023-05-07T00:32:03;21.40;60.90
20335;DHT22;10325;51.468;5.804;2023-05-07T00:34:34;21.40;61.00
20335;DHT22;10325;51.468;5.804;2023-05-07T00:37:05;21.40;61.00
20335;DHT22;10325;51.468;5.804;2023-05-07T00:39:37;21.40;60.90
20335;DHT22;10325;51.468;5.804;2023-05-07T00:42:10;21.40;61.00
20335;DHT22;10325;51.468;5.804;2023-05-07T00:44:40;21.40;61.00
20335;DHT22;10325;51.468;5.804;2023-05-07T00:47:14;21.40;60.90
20335;DHT22;10325;51.468;5.804;2023-05-07T00:49:43;21.40;60.90
20335;DHT22;10325;51.468;5.804;2023-05-07T00:52:24;21.40;60.90
20335;DHT22;10325;51.468;5.804;2023-05-07T00:54:57;21.40;61.00
20335;DHT22;10325;51.468;5.804;2023-05-07T00:57:36;21.30;60.90
20335;DHT22;10325;51.468;5.804;2023-05-07T01:00:06;21.40;61.00
20335;DHT22;10325;51.468;5.804;2023-05-07T01:02:44;21.30;61.00
20335;DHT22;10325;51.468;5.804;2023-05-07T01:05:17;21.40;61.00
20335;DHT22;10325;51.468;5.804;2023-05-07T01:07:45;21.40;61.00
20335;DHT22;10325;51.468;5.804;2023-05-07T01:10:15;21.40;61.00
20335;DHT22;10325;51.468;5.804;2023-05-07T01:12:48;21.40;61.00
20335;DHT22;10325;51.468;5.804;2023-05-07T01:15:21;21.40;61.00
20335;DHT22;10325;51.468;5.804;2023-05-07T01:17:53;21.30;60.90
20335;DHT22;10325;51.468;5.804;2023-05-07T01:20:26;21.30;61.50
20335;DHT22;10325;51.468;5.804;2023-05-07T01:22:59;21.40;61.00
20335;DHT22;10325;51.468;5.804;2023-05-07T01:25:33;21.30;60.90
20335;DHT22;10325;51.468;5.804;2023-05-07T01:28:01;21.30;61.00
20335;DHT22;10325;51.468;5.804;2023-05-07T01:30:31;21.30;61.00
20335;DHT22;10325;51.468;5.804;2023-05-07T01:33:26;21.40;61.00
20335;DHT22;10325;51.468;5.804;2023-05-07T01:35:55;21.30;60.90
20335;DHT22;10325;51.468;5.804;2023-05-07T01:38:39;21.30;61.00
20335;DHT22;10325;51.468;5.804;2023-05-07T01:41:12;21.30;61.00
20335;DHT22;10325;51.468;5.804;2023-05-07T01:43:41;21.30;61.00
20335;DHT22;10325;51.468;5.804;2023-05-07T01:46:11;21.30;61.00
20335;DHT22;10325;51.468;5.804;2023-05-07T01:49:00;21.30;61.00
20335;DHT22;10325;51.468;5.804;2023-05-07T01:51:35;21.30;61.00
20335;DHT22;10325;51.468;5.804;2023-05-07T01:54:05;21.30;61.10
20335;DHT22;10325;51.468;5.804;2023-05-07T01:56:34;21.30;61.10
20335;DHT22;10325;51.468;5.804;2023-05-07T01:59:05;21.20;61.10
20335;DHT22;10325;51.468;5.804;2023-05-07T02:01:35;21.30;61.10
20335;DHT22;10325;51.468;5.804;2023-05-07T02:04:07;21.20;61.10
20335;DHT22;10325;51.468;5.804;2023-05-07T02:06:41;21.30;61.10
20335;DHT22;10325;51.468;5.804;2023-05-07T02:09:11;21.20;61.10
20335;DHT22;10325;51.468;5.804;2023-05-07T02:11:46;21.20;61.10
20335;DHT22;10325;51.468;5.804;2023-05-07T02:14:17;21.20;61.10
20335;DHT22;10325;51.468;5.804;2023-05-07T02:16:47;21.20;61.10
20335;DHT22;10325;51.468;5.804;2023-05-07T02:19:18;21.20;61.10
20335;DHT22;10325;51.468;5.804;2023-05-07T02:21:51;21.20;61.10
20335;DHT22;10325;51.468;5.804;2023-05-07T02:24:21;21.20;61.10
20335;DHT22;10325;51.468;5.804;2023-05-07T02:26:52;21.20;61.10
20335;DHT22;10325;51.468;5.804;2023-05-07T02:29:24;21.20;61.10
20335;DHT22;10325;51.468;5.804;2023-05-07T02:31:54;21.20;61.10
20335;DHT22;10325;51.468;5.804;2023-05-07T02:34:33;21.20;61.10
20335;DHT22;10325;51.468;5.804;2023-05-07T02:37:03;21.20;61.10
20335;DHT22;10325;51.468;5.804;2023-05-07T02:39:36;21.20;61.10
20335;DHT22;10325;51.468;5.804;2023-05-07T02:42:07;21.20;61.10
20335;DHT22;10325;51.468;5.804;2023-05-07T02:44:38;21.20;61.10
20335;DHT22;10325;51.468;5.804;2023-05-07T02:47:12;21.20;61.10
20335;DHT22;10325;51.468;5.804;2023-05-07T02:49:43;21.20;61.10
20335;DHT22;10325;51.468;5.804;2023-05-07T02:52:15;21.20;61.10
20335;DHT22;10325;51.468;5.804;2023-05-07T02:54:46;21.10;61.10
20335;DHT22;10325;51.468;5.804;2023-05-07T02:57:16;21.20;61.20
20335;DHT22;10325;51.468;5.804;2023-05-07T02:59:49;21.20;61.90
20335;DHT22;10325;51.468;5.804;2023-05-07T03:02:21;21.10;61.10
20335;DHT22;10325;51.468;5.804;2023-05-07T03:04:52;21.20;61.30
20335;DHT22;10325;51.468;5.804;2023-05-07T03:07:22;21.20;61.30
20335;DHT22;10325;51.468;5.804;2023-05-07T03:09:52;21.10;61.20
20335;DHT22;10325;51.468;5.804;2023-05-07T03:12:24;21.10;61.30
20335;DHT22;10325;51.468;5.804;2023-05-07T03:14:56;21.10;61.20
20335;DHT22;10325;51.468;5.804;2023-05-07T03:17:32;21.10;60.60
20335;DHT22;10325;51.468;5.804;2023-05-07T03:20:03;21.10;61.20
20335;DHT22;10325;51.468;5.804;2023-05-07T03:22:33;21.10;61.20
20335;DHT22;10325;51.468;5.804;2023-05-07T03:25:04;21.10;61.20
20335;DHT22;10325;51.468;5.804;2023-05-07T03:27:34;21.10;61.20
20335;DHT22;10325;51.468;5.804;2023-05-07T03:30:07;21.10;61.30
20335;DHT22;10325;51.468;5.804;2023-05-07T03:32:39;21.10;61.20
20335;DHT22;10325;51.468;5.804;2023-05-07T03:35:11;21.10;61.30
20335;DHT22;10325;51.468;5.804;2023-05-07T03:37:39;21.10;61.20
20335;DHT22;10325;51.468;5.804;2023-05-07T03:40:07;21.10;61.20
20335;DHT22;10325;51.468;5.804;2023-05-07T03:42:40;21.10;61.30
20335;DHT22;10325;51.468;5.804;2023-05-07T03:45:14;21.10;61.30
20335;DHT22;10325;51.468;5.804;2023-05-07T03:47:41;21.10;61.20
20335;DHT22;10325;51.468;5.804;2023-05-07T03:50:11;21.10;61.20
20335;DHT22;10325;51.468;5.804;2023-05-07T03:52:44;21.10;61.20
20335;DHT22;10325;51.468;5.804;2023-05-07T03:58:55;21.10;61.20
20335;DHT22;10325;51.468;5.804;2023-05-07T04:01:30;21.00;61.30
20335;DHT22;10325;51.468;5.804;2023-05-07T04:04:00;21.00;61.30
20335;DHT22;10325;51.468;5.804;2023-05-07T04:06:28;21.00;61.30
20335;DHT22;10325;51.468;5.804;2023-05-07T04:08:59;21.10;61.90
20335;DHT22;10325;51.468;5.804;2023-05-07T04:11:35;21.10;61.30
20335;DHT22;10325;51.468;5.804;2023-05-07T04:14:06;21.00;61.20
20335;DHT22;10325;51.468;5.804;2023-05-07T04:16:35;21.10;61.30
20335;DHT22;10325;51.468;5.804;2023-05-07T04:19:04;21.00;61.20
20335;DHT22;10325;51.468;5.804;2023-05-07T04:21:35;21.10;61.30
20335;DHT22;10325;51.468;5.804;2023-05-07T04:24:05;21.10;61.20
20335;DHT22;10325;51.468;5.804;2023-05-07T04:26:32;21.00;61.20
20335;DHT22;10325;51.468;5.804;2023-05-07T04:29:01;21.00;61.20
20335;DHT22;10325;51.468;5.804;2023-05-07T04:31:31;21.00;61.20
20335;DHT22;10325;51.468;5.804;2023-05-07T04:34:03;21.00;61.10
20335;DHT22;10325;51.468;5.804;2023-05-07T04:36:34;21.10;61.20
20335;DHT22;10325;51.468;5.804;2023-05-07T04:39:06;21.00;61.20
20335;DHT22;10325;51.468;5.804;2023-05-07T04:41:38;21.00;61.30
20335;DHT22;10325;51.468;5.804;2023-05-07T04:44:08;21.00;61.40
20335;DHT22;10325;51.468;5.804;2023-05-07T04:46:38;21.00;61.30
20335;DHT22;10325;51.468;5.804;2023-05-07T04:49:06;21.00;61.30
20335;DHT22;10325;51.468;5.804;2023-05-07T04:51:36;21.00;61.30
20335;DHT22;10325;51.468;5.804;2023-05-07T04:54:05;21.00;61.20
20335;DHT22;10325;51.468;5.804;2023-05-07T04:56:36;21.00;61.30
20335;DHT22;10325;51.468;5.804;2023-05-07T04:59:09;21.00;61.20
20335;DHT22;10325;51.468;5.804;2023-05-07T05:01:40;21.00;61.20
20335;DHT22;10325;51.468;5.804;2023-05-07T05:04:08;21.00;61.20
20335;DHT22;10325;51.468;5.804;2023-05-07T05:06:40;21.00;61.10
20335;DHT22;10325;51.468;5.804;2023-05-07T05:09:10;21.00;61.20
20335;DHT22;10325;51.468;5.804;2023-05-07T05:11:41;21.00;61.10
20335;DHT22;10325;51.468;5.804;2023-05-07T05:14:10;21.00;61.10
20335;DHT22;10325;51.468;5.804;2023-05-07T05:16:40;21.00;61.10
20335;DHT22;10325;51.468;5.804;2023-05-07T05:19:11;21.00;61.00
20335;DHT22;10325;51.468;5.804;2023-05-07T05:21:42;21.00;61.00
20335;DHT22;10325;51.468;5.804;2023-05-07T05:24:14;21.00;61.10
20335;DHT22;10325;51.468;5.804;2023-05-07T05:26:45;21.00;61.10
20335;DHT22;10325;51.468;5.804;2023-05-07T05:29:17;21.00;61.00
20335;DHT22;10325;51.468;5.804;2023-05-07T05:31:46;21.00;61.10
20335;DHT22;10325;51.468;5.804;2023-05-07T05:34:17;21.00;61.10
20335;DHT22;10325;51.468;5.804;2023-05-07T05:36:50;21.00;61.10
20335;DHT22;10325;51.468;5.804;2023-05-07T05:39:21;21.00;61.00
20335;DHT22;10325;51.468;5.804;2023-05-07T05:41:52;21.00;61.00
20335;DHT22;10325;51.468;5.804;2023-05-07T05:44:22;21.00;61.00
20335;DHT22;10325;51.468;5.804;2023-05-07T05:46:52;21.00;61.00
20335;DHT22;10325;51.468;5.804;2023-05-07T05:49:43;21.00;61.00
20335;DHT22;10325;51.468;5.804;2023-05-07T05:52:15;21.00;61.00
20335;DHT22;10325;51.468;5.804;2023-05-07T05:54:48;21.00;61.00
20335;DHT22;10325;51.468;5.804;2023-05-07T05:57:20;21.00;61.00
20335;DHT22;10325;51.468;5.804;2023-05-07T05:59:57;21.00;61.00
20335;DHT22;10325;51.468;5.804;2023-05-07T06:02:27;21.00;61.00
20335;DHT22;10325;51.468;5.804;2023-05-07T06:04:59;21.00;61.00
20335;DHT22;10325;51.468;5.804;2023-05-07T06:07:31;21.00;61.00
20335;DHT22;10325;51.468;5.804;2023-05-07T06:10:01;21.00;61.00
20335;DHT22;10325;51.468;5.804;2023-05-07T06:12:30;21.00;60.90
20335;DHT22;10325;51.468;5.804;2023-05-07T06:14:58;21.00;60.90
20335;DHT22;10325;51.468;5.804;2023-05-07T06:17:35;21.00;60.90
20335;DHT22;10325;51.468;5.804;2023-05-07T06:20:15;21.00;60.90
20335;DHT22;10325;51.468;5.804;2023-05-07T06:22:47;21.00;61.00
20335;DHT22;10325;51.468;5.804;2023-05-07T06:25:19;21.00;60.90
20335;DHT22;10325;51.468;5.804;2023-05-07T06:27:49;21.00;60.90
20335;DHT22;10325;51.468;5.804;2023-05-07T06:30:17;21.00;60.90
20335;DHT22;10325;51.468;5.804;2023-05-07T06:32:46;21.00;60.90
20335;DHT22;10325;51.468;5.804;2023-05-07T06:35:16;21.00;60.90
20335;DHT22;10325;51.468;5.804;2023-05-07T06:37:45;21.00;60.90
20335;DHT22;10325;51.468;5.804;2023-05-07T06:40:13;21.00;60.90
20335;DHT22;10325;51.468;5.804;2023-05-07T06:42:43;21.00;60.90
20335;DHT22;10325;51.468;5.804;2023-05-07T06:45:13;21.00;60.90
20335;DHT22;10325;51.468;5.804;2023-05-07T06:47:43;21.00;60.90
20335;DHT22;10325;51.468;5.804;2023-05-07T06:50:13;21.00;60.90
20335;DHT22;10325;51.468;5.804;2023-05-07T06:52:44;21.00;60.90
20335;DHT22;10325;51.468;5.804;2023-05-07T06:55:13;21.10;60.90
20335;DHT22;10325;51.468;5.804;2023-05-07T06:57:41;21.00;60.90
20335;DHT22;10325;51.468;5.804;2023-05-07T07:00:11;21.00;60.80
20335;DHT22;10325;51.468;5.804;2023-05-07T07:02:46;21.00;60.80
20335;DHT22;10325;51.468;5.804;2023-05-07T07:05:16;21.00;60.80
20335;DHT22;10325;51.468;5.804;2023-05-07T07:07:48;21.10;60.90
20335;DHT22;10325;51.468;5.804;2023-05-07T07:10:34;21.10;60.90
20335;DHT22;10325;51.468;5.804;2023-05-07T07:13:09;21.00;60.80
20335;DHT22;10325;51.468;5.804;2023-05-07T07:15:37;21.10;60.90
20335;DHT22;10325;51.468;5.804;2023-05-07T07:18:09;21.10;60.90
20335;DHT22;10325;51.468;5.804;2023-05-07T07:20:39;21.10;60.80
20335;DHT22;10325;51.468;5.804;2023-05-07T07:23:11;21.10;60.90
20335;DHT22;10325;51.468;5.804;2023-05-07T07:25:39;21.10;60.80
20335;DHT22;10325;51.468;5.804;2023-05-07T07:28:10;21.10;60.90
20335;DHT22;10325;51.468;5.804;2023-05-07T07:30:42;21.10;60.80
20335;DHT22;10325;51.468;5.804;2023-05-07T07:33:26;21.10;60.80
20335;DHT22;10325;51.468;5.804;2023-05-07T07:35:58;21.10;60.80
20335;DHT22;10325;51.468;5.804;2023-05-07T07:38:38;21.10;60.80
20335;DHT22;10325;51.468;5.804;2023-05-07T07:41:09;21.10;60.80
20335;DHT22;10325;51.468;5.804;2023-05-07T07:43:37;21.10;60.80
20335;DHT22;10325;51.468;5.804;2023-05-07T07:46:08;21.20;60.90
20335;DHT22;10325;51.468;5.804;2023-05-07T07:48:39;21.20;60.80
20335;DHT22;10325;51.468;5.804;2023-05-07T07:51:25;21.20;60.90
20335;DHT22;10325;51.468;5.804;2023-05-07T07:53:55;21.20;61.00
20335;DHT22;10325;51.468;5.804;2023-05-07T07:56:29;21.20;61.10
20335;DHT22;10325;51.468;5.804;2023-05-07T07:59:05;21.20;61.20
20335;DHT22;10325;51.468;5.804;2023-05-07T08:01:36;21.20;61.20
20335;DHT22;10325;51.468;5.804;2023-05-07T08:04:08;21.20;61.30
20335;DHT22;10325;51.468;5.804;2023-05-07T08:06:38;21.20;61.30
20335;DHT22;10325;51.468;5.804;2023-05-07T08:09:05;21.30;61.30
20335;DHT22;10325;51.468;5.804;2023-05-07T08:11:39;21.30;61.20
20335;DHT22;10325;51.468;5.804;2023-05-07T08:14:09;21.30;61.30
20335;DHT22;10325;51.468;5.804;2023-05-07T08:16:44;21.30;61.30
20335;DHT22;10325;51.468;5.804;2023-05-07T08:19:13;21.30;61.90
20335;DHT22;10325;51.468;5.804;2023-05-07T08:21:44;21.30;61.20
20335;DHT22;10325;51.468;5.804;2023-05-07T08:24:18;21.30;61.20
20335;DHT22;10325;51.468;5.804;2023-05-07T08:26:49;21.30;61.20
20335;DHT22;10325;51.468;5.804;2023-05-07T08:29:20;21.30;61.20
20335;DHT22;10325;51.468;5.804;2023-05-07T08:31:47;21.30;61.20
20335;DHT22;10325;51.468;5.804;2023-05-07T08:34:16;21.30;61.20
20335;DHT22;10325;51.468;5.804;2023-05-07T08:36:47;21.30;61.20
20335;DHT22;10325;51.468;5.804;2023-05-07T08:39:19;21.40;61.20
20335;DHT22;10325;51.468;5.804;2023-05-07T08:41:55;21.40;61.20
20335;DHT22;10325;51.468;5.804;2023-05-07T08:44:26;21.40;61.20
20335;DHT22;10325;51.468;5.804;2023-05-07T08:46:57;21.40;61.20
20335;DHT22;10325;51.468;5.804;2023-05-07T08:49:28;21.40;61.20
20335;DHT22;10325;51.468;5.804;2023-05-07T08:51:58;21.40;61.20
20335;DHT22;10325;51.468;5.804;2023-05-07T08:54:29;21.40;61.20
20335;DHT22;10325;51.468;5.804;2023-05-07T08:57:08;21.40;61.20
20335;DHT22;10325;51.468;5.804;2023-05-07T08:59:38;21.40;61.80
20335;DHT22;10325;51.468;5.804;2023-05-07T09:02:13;21.50;62.50
20335;DHT22;10325;51.468;5.804;2023-05-07T09:04:45;21.50;62.40
20335;DHT22;10325;51.468;5.804;2023-05-07T09:07:12;21.50;62.30
20335;DHT22;10325;51.468;5.804;2023-05-07T09:09:44;21.40;62.10
20335;DHT22;10325;51.468;5.804;2023-05-07T09:12:12;21.50;62.30
20335;DHT22;10325;51.468;5.804;2023-05-07T09:14:42;21.50;62.30
20335;DHT22;10325;51.468;5.804;2023-05-07T09:17:13;21.50;62.30
20335;DHT22;10325;51.468;5.804;2023-05-07T09:19:48;21.50;62.30
20335;DHT22;10325;51.468;5.804;2023-05-07T09:22:20;21.50;62.40
20335;DHT22;10325;51.468;5.804;2023-05-07T09:24:52;21.50;62.20
20335;DHT22;10325;51.468;5.804;2023-05-07T09:27:24;21.50;62.10
20335;DHT22;10325;51.468;5.804;2023-05-07T09:29:56;21.50;62.10
20335;DHT22;10325;51.468;5.804;2023-05-07T09:32:27;21.50;62.00
20335;DHT22;10325;51.468;5.804;2023-05-07T09:35:04;21.60;62.10
20335;DHT22;10325;51.468;5.804;2023-05-07T09:37:39;21.60;62.00
20335;DHT22;10325;51.468;5.804;2023-05-07T09:40:25;21.60;62.10
20335;DHT22;10325;51.468;5.804;2023-05-07T09:43:13;21.60;62.00
20335;DHT22;10325;51.468;5.804;2023-05-07T09:45:53;21.60;61.90
20335;DHT22;10325;51.468;5.804;2023-05-07T09:48:28;21.60;61.80
20335;DHT22;10325;51.468;5.804;2023-05-07T09:51:02;21.60;62.40
20335;DHT22;10325;51.468;5.804;2023-05-07T09:53:34;21.60;61.70
20335;DHT22;10325;51.468;5.804;2023-05-07T09:56:09;21.60;61.70
20335;DHT22;10325;51.468;5.804;2023-05-07T09:58:38;21.70;61.70
20335;DHT22;10325;51.468;5.804;2023-05-07T10:01:08;21.70;61.70
20335;DHT22;10325;51.468;5.804;2023-05-07T10:03:45;21.70;61.70
20335;DHT22;10325;51.468;5.804;2023-05-07T10:06:22;21.70;61.50
20335;DHT22;10325;51.468;5.804;2023-05-07T10:08:50;21.70;61.50
20335;DHT22;10325;51.468;5.804;2023-05-07T10:11:23;21.70;61.50
20335;DHT22;10325;51.468;5.804;2023-05-07T10:13:55;21.70;61.50
20335;DHT22;10325;51.468;5.804;2023-05-07T10:16:29;21.70;61.50
20335;DHT22;10325;51.468;5.804;2023-05-07T10:19:08;21.80;61.50
20335;DHT22;10325;51.468;5.804;2023-05-07T10:22:00;21.80;61.60
20335;DHT22;10325;51.468;5.804;2023-05-07T10:24:39;21.80;61.40
20335;DHT22;10325;51.468;5.804;2023-05-07T10:27:17;21.80;62.30
20335;DHT22;10325;51.468;5.804;2023-05-07T10:32:55;21.80;61.80
20335;DHT22;10325;51.468;5.804;2023-05-07T10:35:40;21.80;61.90
20335;DHT22;10325;51.468;5.804;2023-05-07T10:38:13;21.90;61.60
20335;DHT22;10325;51.468;5.804;2023-05-07T10:40:43;21.90;61.70
20335;DHT22;10325;51.468;5.804;2023-05-07T10:43:14;21.90;62.20
20335;DHT22;10325;51.468;5.804;2023-05-07T10:46:15;21.90;64.10
20335;DHT22;10325;51.468;5.804;2023-05-07T10:51:38;21.90;65.50
20335;DHT22;10325;51.468;5.804;2023-05-07T10:54:21;21.90;66.50
20335;DHT22;10325;51.468;5.804;2023-05-07T10:56:57;21.90;66.40
20335;DHT22;10325;51.468;5.804;2023-05-07T10:59:53;22.00;67.30
20335;DHT22;10325;51.468;5.804;2023-05-07T11:05:31;22.00;67.90
20335;DHT22;10325;51.468;5.804;2023-05-07T11:08:07;22.00;68.10
20335;DHT22;10325;51.468;5.804;2023-05-07T11:10:56;22.00;68.20
20335;DHT22;10325;51.468;5.804;2023-05-07T11:13:49;22.10;68.30
20335;DHT22;10325;51.468;5.804;2023-05-07T11:16:24;22.00;68.40
20335;DHT22;10325;51.468;5.804;2023-05-07T11:18:55;22.00;68.60
20335;DHT22;10325;51.468;5.804;2023-05-07T11:21:41;22.00;68.80
20335;DHT22;10325;51.468;5.804;2023-05-07T11:24:16;22.10;68.80
20335;DHT22;10325;51.468;5.804;2023-05-07T11:26:51;22.10;69.10
20335;DHT22;10325;51.468;5.804;2023-05-07T11:29:23;22.10;69.40
20335;DHT22;10325;51.468;5.804;2023-05-07T11:31:58;22.10;69.30
20335;DHT22;10325;51.468;5.804;2023-05-07T11:34:36;22.10;69.50
20335;DHT22;10325;51.468;5.804;2023-05-07T11:37:09;22.10;69.70
20335;DHT22;10325;51.468;5.804;2023-05-07T11:39:42;22.10;69.60
20335;DHT22;10325;51.468;5.804;2023-05-07T11:42:33;22.20;69.70
20335;DHT22;10325;51.468;5.804;2023-05-07T11:45:10;22.20;69.30
20335;DHT22;10325;51.468;5.804;2023-05-07T11:47:42;22.20;70.00
20335;DHT22;10325;51.468;5.804;2023-05-07T11:50:14;22.20;69.90
20335;DHT22;10325;51.468;5.804;2023-05-07T11:52:52;22.20;70.10
20335;DHT22;10325;51.468;5.804;2023-05-07T11:55:23;22.20;70.10
20335;DHT22;10325;51.468;5.804;2023-05-07T11:57:53;22.20;69.90
20335;DHT22;10325;51.468;5.804;2023-05-07T12:00:20;22.20;70.30
20335;DHT22;10325;51.468;5.804;2023-05-07T12:03:22;22.20;70.30
20335;DHT22;10325;51.468;5.804;2023-05-07T12:05:51;22.30;70.30
20335;DHT22;10325;51.468;5.804;2023-05-07T12:08:23;22.20;70.70
20335;DHT22;10325;51.468;5.804;2023-05-07T12:10:54;22.30;70.50
20335;DHT22;10325;51.468;5.804;2023-05-07T12:13:28;22.30;71.00
20335;DHT22;10325;51.468;5.804;2023-05-07T12:15:57;22.30;70.70
20335;DHT22;10325;51.468;5.804;2023-05-07T12:18:34;22.30;70.50
20335;DHT22;10325;51.468;5.804;2023-05-07T12:21:02;22.30;71.00
20335;DHT22;10325;51.468;5.804;2023-05-07T12:23:34;22.30;70.80
20335;DHT22;10325;51.468;5.804;2023-05-07T12:26:19;22.30;70.90
20335;DHT22;10325;51.468;5.804;2023-05-07T12:28:51;22.30;71.60
20335;DHT22;10325;51.468;5.804;2023-05-07T12:31:18;22.30;71.00
20335;DHT22;10325;51.468;5.804;2023-05-07T12:33:47;22.40;71.40
20335;DHT22;10325;51.468;5.804;2023-05-07T12:36:16;22.40;70.80
20335;DHT22;10325;51.468;5.804;2023-05-07T12:38:52;22.40;71.50
20335;DHT22;10325;51.468;5.804;2023-05-07T12:41:25;22.40;71.10
20335;DHT22;10325;51.468;5.804;2023-05-07T12:44:00;22.40;71.20
20335;DHT22;10325;51.468;5.804;2023-05-07T12:46:38;22.40;71.30
20335;DHT22;10325;51.468;5.804;2023-05-07T12:49:08;22.40;71.30
20335;DHT22;10325;51.468;5.804;2023-05-07T12:51:36;22.40;71.40
20335;DHT22;10325;51.468;5.804;2023-05-07T12:54:11;22.40;71.40
20335;DHT22;10325;51.468;5.804;2023-05-07T12:56:43;22.40;71.50
20335;DHT22;10325;51.468;5.804;2023-05-07T12:59:16;22.40;71.80
20335;DHT22;10325;51.468;5.804;2023-05-07T13:01:46;22.40;71.50
20335;DHT22;10325;51.468;5.804;2023-05-07T13:04:17;22.50;71.90
20335;DHT22;10325;51.468;5.804;2023-05-07T13:06:48;22.40;72.00
20335;DHT22;10325;51.468;5.804;2023-05-07T13:09:18;22.40;71.20
20335;DHT22;10325;51.468;5.804;2023-05-07T13:11:50;22.50;70.80
20335;DHT22;10325;51.468;5.804;2023-05-07T13:14:23;22.50;71.40
20335;DHT22;10325;51.468;5.804;2023-05-07T13:16:53;22.50;71.50
20335;DHT22;10325;51.468;5.804;2023-05-07T13:19:26;22.50;71.70
20335;DHT22;10325;51.468;5.804;2023-05-07T13:21:58;22.50;72.00
20335;DHT22;10325;51.468;5.804;2023-05-07T13:24:27;22.50;72.00
20335;DHT22;10325;51.468;5.804;2023-05-07T13:26:58;22.50;71.20
20335;DHT22;10325;51.468;5.804;2023-05-07T13:29:30;22.50;70.40
20335;DHT22;10325;51.468;5.804;2023-05-07T13:32:03;22.50;70.00
20335;DHT22;10325;51.468;5.804;2023-05-07T13:34:35;22.50;70.30
20335;DHT22;10325;51.468;5.804;2023-05-07T13:37:07;22.50;70.80
20335;DHT22;10325;51.468;5.804;2023-05-07T13:39:40;22.50;70.60
20335;DHT22;10325;51.468;5.804;2023-05-07T13:42:13;22.50;70.80
20335;DHT22;10325;51.468;5.804;2023-05-07T13:44:45;22.50;71.00
20335;DHT22;10325;51.468;5.804;2023-05-07T13:47:14;22.50;71.10
20335;DHT22;10325;51.468;5.804;2023-05-07T13:49:44;22.50;71.00
20335;DHT22;10325;51.468;5.804;2023-05-07T13:52:12;22.50;70.70
20335;DHT22;10325;51.468;5.804;2023-05-07T13:54:43;22.50;71.50
20335;DHT22;10325;51.468;5.804;2023-05-07T13:57:12;22.50;70.50
20335;DHT22;10325;51.468;5.804;2023-05-07T13:59:43;22.50;70.60
20335;DHT22;10325;51.468;5.804;2023-05-07T14:02:13;22.40;70.70
20335;DHT22;10325;51.468;5.804;2023-05-07T14:04:46;22.50;70.50
20335;DHT22;10325;51.468;5.804;2023-05-07T14:07:17;22.40;70.90
20335;DHT22;10325;51.468;5.804;2023-05-07T14:09:47;22.40;71.00
20335;DHT22;10325;51.468;5.804;2023-05-07T14:12:25;22.50;71.40
20335;DHT22;10325;51.468;5.804;2023-05-07T14:14:59;22.40;71.60
20335;DHT22;10325;51.468;5.804;2023-05-07T14:17:41;22.40;71.30
20335;DHT22;10325;51.468;5.804;2023-05-07T14:20:13;22.40;71.50
20335;DHT22;10325;51.468;5.804;2023-05-07T14:22:44;22.40;71.60
20335;DHT22;10325;51.468;5.804;2023-05-07T14:25:15;22.40;71.70
20335;DHT22;10325;51.468;5.804;2023-05-07T14:27:51;22.40;71.50
20335;DHT22;10325;51.468;5.804;2023-05-07T14:30:21;22.40;71.20
20335;DHT22;10325;51.468;5.804;2023-05-07T14:32:54;22.40;71.30
20335;DHT22;10325;51.468;5.804;2023-05-07T14:35:23;22.40;71.30
20335;DHT22;10325;51.468;5.804;2023-05-07T14:37:55;22.40;71.40
20335;DHT22;10325;51.468;5.804;2023-05-07T14:40:23;22.40;71.20
20335;DHT22;10325;51.468;5.804;2023-05-07T14:42:52;22.40;71.20
20335;DHT22;10325;51.468;5.804;2023-05-07T14:45:22;22.40;71.20
20335;DHT22;10325;51.468;5.804;2023-05-07T14:47:52;22.30;71.10
20335;DHT22;10325;51.468;5.804;2023-05-07T14:50:22;22.40;71.00
20335;DHT22;10325;51.468;5.804;2023-05-07T14:52:59;22.30;70.80
20335;DHT22;10325;51.468;5.804;2023-05-07T14:55:27;22.30;71.00
20335;DHT22;10325;51.468;5.804;2023-05-07T14:58:02;22.30;70.90
20335;DHT22;10325;51.468;5.804;2023-05-07T15:00:42;22.30;71.00
20335;DHT22;10325;51.468;5.804;2023-05-07T15:03:14;22.30;71.00
20335;DHT22;10325;51.468;5.804;2023-05-07T15:05:43;22.30;71.10
20335;DHT22;10325;51.468;5.804;2023-05-07T15:08:12;22.30;71.00
20335;DHT22;10325;51.468;5.804;2023-05-07T15:10:46;22.30;71.20
20335;DHT22;10325;51.468;5.804;2023-05-07T15:13:14;22.30;71.20
20335;DHT22;10325;51.468;5.804;2023-05-07T15:15:46;22.30;71.10
20335;DHT22;10325;51.468;5.804;2023-05-07T15:18:15;22.30;71.10
20335;DHT22;10325;51.468;5.804;2023-05-07T15:20:50;22.30;71.10
20335;DHT22;10325;51.468;5.804;2023-05-07T15:23:20;22.30;71.20
20335;DHT22;10325;51.468;5.804;2023-05-07T15:25:47;22.30;71.10
20335;DHT22;10325;51.468;5.804;2023-05-07T15:28:21;22.30;70.90
20335;DHT22;10325;51.468;5.804;2023-05-07T15:30:52;22.30;71.00
20335;DHT22;10325;51.468;5.804;2023-05-07T15:33:25;22.30;71.00
20335;DHT22;10325;51.468;5.804;2023-05-07T15:35:56;22.30;70.80
20335;DHT22;10325;51.468;5.804;2023-05-07T15:38:30;22.30;71.00
20335;DHT22;10325;51.468;5.804;2023-05-07T15:41:11;22.30;71.00
20335;DHT22;10325;51.468;5.804;2023-05-07T15:43:51;22.30;70.90
20335;DHT22;10325;51.468;5.804;2023-05-07T15:46:22;22.30;70.90
20335;DHT22;10325;51.468;5.804;2023-05-07T15:49:05;22.30;70.80
20335;DHT22;10325;51.468;5.804;2023-05-07T15:51:39;22.30;70.90
20335;DHT22;10325;51.468;5.804;2023-05-07T15:54:08;22.30;71.00
20335;DHT22;10325;51.468;5.804;2023-05-07T15:56:39;22.30;70.90
20335;DHT22;10325;51.468;5.804;2023-05-07T15:59:10;22.30;70.80
20335;DHT22;10325;51.468;5.804;2023-05-07T16:01:42;22.30;70.90
20335;DHT22;10325;51.468;5.804;2023-05-07T16:04:14;22.30;70.70
20335;DHT22;10325;51.468;5.804;2023-05-07T16:06:42;22.30;70.50
20335;DHT22;10325;51.468;5.804;2023-05-07T16:09:18;22.20;69.80
20335;DHT22;10325;51.468;5.804;2023-05-07T16:11:47;22.30;69.30
20335;DHT22;10325;51.468;5.804;2023-05-07T16:14:16;22.30;69.30
20335;DHT22;10325;51.468;5.804;2023-05-07T16:16:49;22.30;68.70